Time;durP1;ratioP1;P1;durP2;ratioP2;P2;SDS_P1;SDS_P2;PMS_P1;PMS_P2;Temp;Humidity;BMP_temperature;BMP_pressure;BME280_temperature;BME280_humidity;BME280_pressure;Samples;Min_cycle;Max_cycle;Signal;HPM_P1;HPM_P2
2023/04/13 00:02:59;;;;;;;7.65;3.10;;;;;;;6.21;100.00;99058.53;6331529;28;20514;-84
2023/04/13 00:06:01;;;;;;;5.05;3.03;;;;;;;6.22;100.00;99064.56;6330072;28;20047;-83
2023/04/13 00:09:02;;;;;;;5.45;3.45;;;;;;;6.21;100.00;99055.94;6331497;28;20052;-83
2023/04/13 00:12:03;;;;;;;4.45;2.67;;;;;;;6.19;100.00;99064.75;6323763;28;20094;-83
2023/04/13 00:15:04;;;;;;;6.07;3.53;;;;;;;6.18;100.00;99058.72;6306141;28;20044;-84
2023/04/13 00:18:05;;;;;;;4.85;2.85;;;;;;;6.14;100.00;99048.66;6305910;28;20048;-83
2023/04/13 00:21:07;;;;;;;5.95;3.15;;;;;;;6.08;100.00;99047.25;6323881;28;20101;-84
2023/04/13 00:24:08;;;;;;;7.93;3.50;;;;;;;5.95;100.00;99039.38;6306081;28;20180;-84
2023/04/13 00:27:09;;;;;;;5.88;3.53;;;;;;;5.96;100.00;99048.78;6306198;28;20052;-85
2023/04/13 00:30:15;;;;;;;4.97;3.53;;;;;;;5.95;100.00;99051.44;6305743;28;20044;-85
2023/04/13 00:33:16;;;;;;;5.20;3.45;;;;;;;5.86;100.00;99055.38;6323245;28;20446;-85
2023/04/13 00:36:20;;;;;;;6.75;3.13;;;;;;;5.79;100.00;99060.09;6305543;28;20051;-85
2023/04/13 00:39:24;;;;;;;5.18;2.58;;;;;;;5.78;100.00;99053.22;6305737;28;20048;-85
2023/04/13 00:42:25;;;;;;;5.85;3.65;;;;;;;5.79;100.00;99059.25;6312775;28;20047;-85
2023/04/13 00:45:27;;;;;;;5.28;3.47;;;;;;;5.79;100.00;99062.66;6348957;28;20507;-85
2023/04/13 00:48:28;;;;;;;6.03;2.63;;;;;;;5.77;100.00;99056.75;6330685;28;20043;-84
2023/04/13 00:51:29;;;;;;;8.25;3.20;;;;;;;5.71;100.00;99074.38;6330337;28;20069;-84
2023/04/13 00:54:31;;;;;;;4.97;3.28;;;;;;;5.57;100.00;99073.41;6330534;28;20043;-83
2023/04/13 00:57:33;;;;;;;;;;;;;;;5.62;100.00;99070.53;6330449;28;20051;-83
2023/04/13 01:00:37;;;;;;;3.33;2.13;;;;;;;5.64;100.00;99059.22;6330393;28;19920;-83
2023/04/13 01:03:39;;;;;;;3.38;2.65;;;;;;;5.67;100.00;99062.53;6348382;28;20079;-83
2023/04/13 01:06:50;;;;;;;5.05;3.53;;;;;;;5.54;100.00;99052.03;6325207;28;20066;-84
2023/04/13 01:09:55;;;;;;;7.30;4.15;;;;;;;5.37;100.00;99043.44;6326710;28;20152;-84
2023/04/13 01:13:18;;;;;;;7.95;4.13;;;;;;;5.45;100.00;99053.38;6304809;28;20385;-84
2023/04/13 01:16:24;;;;;;;4.88;2.80;;;;;;;5.55;100.00;99069.22;6322705;28;20473;-85
2023/04/13 01:19:55;;;;;;;6.05;3.95;;;;;;;5.42;100.00;99077.69;6304826;28;20484;-85
2023/04/13 01:22:59;;;;;;;7.72;2.88;;;;;;;5.41;100.00;99090.69;6296166;28;20109;-84
2023/04/13 01:26:07;;;;;;;6.82;3.40;;;;;;;5.39;100.00;99093.34;6322501;28;20075;-84
2023/04/13 01:29:09;;;;;;;5.07;2.88;;;;;;;5.48;100.00;99092.03;6304440;28;20469;-84
2023/04/13 01:32:12;;;;;;;6.63;3.05;;;;;;;5.51;100.00;99088.44;6304310;28;20040;-84
2023/04/13 01:35:14;;;;;;;8.35;4.22;;;;;;;5.51;100.00;99088.44;6304204;28;20137;-85
2023/04/13 01:38:15;;;;;;;9.47;3.67;;;;;;;5.46;100.00;99088.69;6326521;28;20044;-82
2023/04/13 01:41:15;;;;;;;7.55;3.05;;;;;;;5.36;100.00;99100.47;6347253;28;20126;-82
2023/04/13 01:44:17;;;;;;;3.72;2.50;;;;;;;5.41;100.00;99094.09;6329356;28;20047;-82
2023/04/13 01:47:21;;;;;;;5.18;3.17;;;;;;;5.27;100.00;99085.44;6347089;28;20101;-83
2023/04/13 01:50:28;;;;;;;5.25;3.25;;;;;;;5.28;100.00;99094.88;6347290;28;20047;-83
2023/04/13 01:53:37;;;;;;;7.35;3.97;;;;;;;5.34;100.00;99089.38;6328991;28;20043;-83
2023/04/13 01:56:41;;;;;;;5.55;2.85;;;;;;;5.34;100.00;99094.53;6319868;28;20055;-83
2023/04/13 01:59:43;;;;;;;2.53;2.33;;;;;;;5.30;100.00;99095.63;6328702;28;20059;-83
2023/04/13 02:02:47;;;;;;;4.88;2.95;;;;;;;5.22;100.00;99102.03;6329000;28;20116;-83
2023/04/13 02:05:49;;;;;;;3.40;2.22;;;;;;;5.23;100.00;99103.72;6328613;28;20131;-83
2023/04/13 02:08:50;;;;;;;7.63;3.42;;;;;;;5.18;100.00;99100.53;6328882;28;20095;-85
2023/04/13 02:11:51;;;;;;;6.57;3.13;;;;;;;5.14;100.00;99113.72;6328554;28;20047;-85
2023/04/13 02:14:52;;;;;;;5.57;3.08;;;;;;;5.12;100.00;99110.38;6338455;28;20052;-83
2023/04/13 02:17:53;;;;;;;7.10;3.45;;;;;;;4.99;100.00;99086.94;6303313;28;20047;-82
2023/04/13 02:21:07;;;;;;;3.78;2.35;;;;;;;5.08;100.00;99107.13;6303258;28;20043;-83
2023/04/13 02:24:07;;;;;;;4.15;2.83;;;;;;;5.09;100.00;99102.81;6287163;28;20054;-83
2023/04/13 02:27:09;;;;;;;5.55;3.42;;;;;;;4.96;100.00;99094.84;6320939;28;20051;-82
2023/04/13 02:30:11;;;;;;;5.40;3.60;;;;;;;5.01;100.00;99092.88;6303375;28;20044;-82
2023/04/13 02:33:14;;;;;;;4.35;2.85;;;;;;;4.99;100.00;99098.09;6303437;28;20044;-83
2023/04/13 02:36:16;;;;;;;3.35;2.17;;;;;;;4.98;100.00;99093.88;6328182;28;20047;-83
2023/04/13 02:39:17;;;;;;;6.82;3.17;;;;;;;5.01;100.00;99101.44;6327874;28;20051;-82
2023/04/13 02:42:18;;;;;;;3.42;2.95;;;;;;;5.01;100.00;99104.03;6346029;28;20052;-83
2023/04/13 02:45:18;;;;;;;4.45;2.60;;;;;;;4.97;100.00;99096.53;6346428;28;20131;-82
2023/04/13 02:48:20;;;;;;;4.88;3.38;;;;;;;4.99;100.00;99085.19;6328356;28;20048;-83
2023/04/13 02:51:23;;;;;;;7.03;2.40;;;;;;;5.07;100.00;99097.72;6328006;28;20484;-84
2023/04/13 02:54:24;;;;;;;5.18;3.35;;;;;;;5.04;100.00;99084.94;6327922;28;20228;-83
2023/04/13 02:57:25;;;;;;;3.63;2.35;;;;;;;4.96;100.00;99098.28;6327849;28;20406;-83
2023/04/13 03:00:27;;;;;;;5.03;2.80;;;;;;;5.02;100.00;99090.19;6328245;28;20055;-83
2023/04/13 03:03:29;;;;;;;6.20;3.45;;;;;;;4.96;100.00;99098.28;6327988;28;20059;-84
2023/04/13 03:06:30;;;;;;;4.27;3.13;;;;;;;5.09;100.00;99106.22;6327632;28;20052;-83
2023/04/13 03:09:31;;;;;;;3.45;2.58;;;;;;;5.11;100.00;99101.78;6310513;28;20048;-83
2023/04/13 03:12:32;;;;;;;3.78;2.72;;;;;;;5.09;100.00;99079.53;6302337;28;20044;-83
2023/04/13 03:15:32;;;;;;;7.85;4.07;;;;;;;5.05;100.00;99078.84;6302787;28;20495;-83
2023/04/13 03:18:33;;;;;;;2.38;2.15;;;;;;;5.00;100.00;99089.44;6320943;28;20048;-83
2023/04/13 03:21:35;;;;;;;4.10;2.88;;;;;;;4.82;100.00;99074.91;6302347;28;20048;-83
2023/04/13 03:24:36;;;;;;;8.97;3.40;;;;;;;4.95;100.00;99083.69;6302558;28;20055;-84
2023/04/13 03:27:36;;;;;;;3.85;2.92;;;;;;;4.71;100.00;99049.63;6302148;28;20048;-83
2023/04/13 03:30:38;;;;;;;4.53;3.33;;;;;;;4.91;100.00;99082.16;6320306;28;20181;-83
2023/04/13 03:33:39;;;;;;;4.85;3.47;;;;;;;4.96;100.00;99081.91;6302333;28;20495;-83
2023/04/13 03:36:40;;;;;;;3.08;2.45;;;;;;;4.98;100.00;99078.34;6320133;28;20087;-83
2023/04/13 03:39:41;;;;;;;5.45;3.17;;;;;;;4.77;100.00;99059.63;6302037;28;20113;-84
2023/04/13 03:42:41;;;;;;;5.82;3.67;;;;;;;4.75;100.00;99066.63;6302363;28;20044;-83
2023/04/13 03:45:42;;;;;;;6.47;4.07;;;;;;;4.80;100.00;99080.16;6320158;28;20048;-83
2023/04/13 03:48:43;;;;;;;5.68;3.40;;;;;;;4.80;100.00;99077.56;6302076;28;20056;-83
2023/04/13 03:51:44;;;;;;;4.82;3.60;;;;;;;4.89;100.00;99091.75;6302068;28;20464;-84
2023/04/13 03:54:45;;;;;;;3.97;2.20;;;;;;;4.89;100.00;99101.28;6301851;28;20059;-84
2023/04/13 03:57:46;;;;;;;4.35;2.90;;;;;;;4.91;100.00;99107.19;6293592;28;20060;-83
2023/04/13 04:00:47;;;;;;;7.18;3.20;;;;;;;4.87;100.00;99106.50;6293606;28;20477;-83
2023/04/13 04:03:52;;;;;;;4.85;2.97;;;;;;;4.90;100.00;99110.69;6293649;28;20044;-83
2023/04/13 04:06:52;;;;;;;6.93;3.80;;;;;;;4.84;100.00;99098.94;6298458;28;20146;-83
2023/04/13 04:09:53;;;;;;;5.30;3.67;;;;;;;4.89;100.00;99099.50;6323184;28;20048;-83
2023/04/13 04:12:56;;;;;;;6.63;3.70;;;;;;;5.01;100.00;99116.13;6322948;28;20070;-84
2023/04/13 04:15:57;;;;;;;6.03;3.42;;;;;;;5.06;100.00;99108.94;6323150;28;20047;-84
2023/04/13 04:18:57;;;;;;;9.90;3.63;;;;;;;5.03;100.00;99116.88;6322843;28;20055;-84
2023/04/13 04:22:03;;;;;;;9.15;4.32;;;;;;;5.05;100.00;99109.88;6322748;28;20047;-83
2023/04/13 04:25:06;;;;;;;5.47;3.63;;;;;;;5.19;100.00;99128.09;6322640;28;20534;-83
2023/04/13 04:28:07;;;;;;;5.22;3.58;;;;;;;5.27;100.00;99125.06;6323765;28;20055;-84
2023/04/13 04:31:11;;;;;;;9.63;3.53;;;;;;;5.27;100.00;99126.81;6322756;28;20044;-84
2023/04/13 04:34:12;;;;;;;5.32;3.67;;;;;;;5.27;100.00;99113.88;6322590;28;20081;-84
2023/04/13 04:37:20;;;;;;;6.90;3.50;;;;;;;5.35;100.00;99125.47;6322495;28;20056;-83
2023/04/13 04:40:21;;;;;;;3.70;2.78;;;;;;;5.48;100.00;99120.50;6321524;28;20048;-84
2023/04/13 04:43:24;;;;;;;4.65;3.05;;;;;;;5.52;100.00;99118.56;6319139;28;20110;-83
2023/04/13 04:46:26;;;;;;;5.82;3.83;;;;;;;5.55;100.00;99126.16;6317524;28;20446;-84
2023/04/13 04:49:27;;;;;;;7.53;3.67;;;;;;;5.69;100.00;99122.81;6322171;28;20480;-83
2023/04/13 04:52:28;;;;;;;5.05;3.08;;;;;;;5.56;100.00;99105.38;6323314;28;20048;-84
2023/04/13 04:55:29;;;;;;;8.40;3.35;;;;;;;5.77;100.00;99126.63;6313689;28;20131;-83
2023/04/13 04:58:30;;;;;;;4.80;3.45;;;;;;;5.77;100.00;99126.63;6300738;28;20067;-83
2023/04/13 05:01:33;;;;;;;6.43;3.33;;;;;;;5.90;100.00;99118.19;6296865;28;20048;-83
2023/04/13 05:04:34;;;;;;;4.93;3.00;;;;;;;5.94;100.00;99124.84;6296845;28;20053;-83
2023/04/13 05:07:36;;;;;;;4.03;3.13;;;;;;;5.95;100.00;99118.78;6296546;28;20055;-84
2023/04/13 05:10:44;;;;;;;5.18;2.90;;;;;;;6.09;100.00;99125.75;6296558;28;20109;-85
2023/04/13 05:13:48;;;;;;;5.28;3.60;;;;;;;6.15;100.00;99122.81;6300157;28;20070;-84
2023/04/13 05:16:50;;;;;;;7.13;3.35;;;;;;;6.29;100.00;99122.84;6305741;28;20040;-84
2023/04/13 05:19:51;;;;;;;7.22;3.83;;;;;;;6.29;100.00;99122.03;6308989;28;20044;-85
2023/04/13 05:22:52;;;;;;;8.50;2.80;;;;;;;6.53;100.00;99122.38;6321534;28;20040;-85
2023/04/13 05:25:53;;;;;;;5.30;2.80;;;;;;;6.68;100.00;99111.06;6315045;28;20052;-84
2023/04/13 05:28:54;;;;;;;3.53;2.53;;;;;;;6.91;100.00;99121.81;6322251;28;20056;-85
2023/04/13 05:32:03;;;;;;;6.82;2.55;;;;;;;7.11;100.00;99110.22;6309678;28;20045;-84
2023/04/13 05:35:04;;;;;;;3.88;2.97;;;;;;;7.22;100.00;99113.81;6299711;28;20423;-85
2023/04/13 05:38:05;;;;;;;5.35;3.53;;;;;;;7.44;100.00;99102.09;6305436;28;20048;-83
2023/04/13 05:41:06;;;;;;;4.50;2.53;;;;;;;7.55;100.00;99111.78;6297257;28;20045;-83
2023/04/13 05:44:09;;;;;;;4.40;3.15;;;;;;;7.59;100.00;99100.28;6321016;28;20048;-84
2023/04/13 05:47:10;;;;;;;3.00;2.38;;;;;;;7.35;100.00;99074.09;6311103;28;20048;-86
2023/04/13 05:50:11;;;;;;;5.72;2.95;;;;;;;7.68;100.00;99094.50;6295418;28;20048;-88
2023/04/13 05:53:12;;;;;;;4.72;3.05;;;;;;;7.82;100.00;99119.56;6295424;28;20128;-84
2023/04/13 05:56:15;;;;;;;4.13;2.47;;;;;;;7.81;100.00;99113.56;6311138;28;20113;-83
2023/04/13 05:59:19;;;;;;;6.63;4.20;;;;;;;7.95;100.00;99114.41;6295046;28;20443;-83
2023/04/13 06:02:21;;;;;;;5.03;3.20;;;;;;;8.08;100.00;99118.72;6295493;28;20044;-84
2023/04/13 06:05:23;;;;;;;4.10;2.53;;;;;;;8.24;100.00;99126.34;6305373;28;20048;-84
2023/04/13 06:08:31;;;;;;;5.88;3.38;;;;;;;8.33;100.00;99124.88;6320497;28;20055;-84
2023/04/13 06:11:31;;;;;;;5.63;2.60;;;;;;;8.44;100.00;99114.66;6320107;28;20101;-85
2023/04/13 06:14:33;;;;;;;6.63;3.25;;;;;;;8.68;100.00;99122.53;6320581;28;20480;-83
2023/04/13 06:17:34;;;;;;;4.57;3.30;;;;;;;8.87;99.31;99124.75;6320371;28;20101;-83
2023/04/13 06:20:35;;;;;;;5.63;2.85;;;;;;;8.91;100.00;99127.13;6320010;28;20149;-83
2023/04/13 06:23:36;;;;;;;5.50;3.67;;;;;;;9.08;99.44;99130.22;6318393;28;20062;-83
2023/04/13 06:26:41;;;;;;;5.07;2.78;;;;;;;9.26;96.72;99133.28;6303767;28;20056;-83
2023/04/13 06:29:42;;;;;;;4.63;2.85;;;;;;;9.51;96.62;99135.94;6295426;28;20496;-82
2023/04/13 06:32:43;;;;;;;3.97;3.05;;;;;;;9.79;94.82;99132.19;6300167;28;20051;-84
2023/04/13 06:35:44;;;;;;;3.35;2.80;;;;;;;10.02;94.00;99143.56;6302781;28;20518;-85
2023/04/13 06:38:46;;;;;;;7.88;2.88;;;;;;;10.13;93.27;99134.94;6305863;28;20051;-85
2023/04/13 06:41:49;;;;;;;6.07;3.50;;;;;;;10.37;91.80;99132.31;6302534;28;20068;-85
2023/04/13 06:44:50;;;;;;;3.55;2.75;;;;;;;10.57;90.18;99126.44;6303673;28;20049;-82
2023/04/13 06:47:52;;;;;;;3.72;2.47;;;;;;;10.46;88.53;99122.03;6303756;28;20052;-83
2023/04/13 06:50:58;;;;;;;3.85;2.50;;;;;;;10.75;88.71;99113.78;6302598;28;20491;-83
2023/04/13 06:54:02;;;;;;;7.63;2.92;;;;;;;11.17;86.61;99123.63;6317218;28;20076;-86
2023/04/13 06:57:03;;;;;;;4.53;3.08;;;;;;;11.33;83.44;99128.47;6309890;28;20052;-85
2023/04/13 07:00:06;;;;;;;4.50;2.80;;;;;;;11.36;82.74;99133.44;6327656;28;20054;-86
2023/04/13 07:03:07;;;;;;;4.53;2.15;;;;;;;11.53;82.89;99127.75;6346382;28;20050;-85
2023/04/13 07:06:08;;;;;;;3.75;2.40;;;;;;;11.79;81.95;99132.66;6327980;28;20048;-83
2023/04/13 07:09:11;;;;;;;2.78;2.20;;;;;;;11.92;80.25;99130.72;6318985;28;20078;-84
2023/04/13 07:12:12;;;;;;;2.97;2.13;;;;;;;11.68;78.09;99115.22;6335332;28;20453;-82
2023/04/13 07:15:14;;;;;;;3.08;2.05;;;;;;;11.96;78.61;99136.53;6345720;28;20561;-77
2023/04/13 07:18:15;;;;;;;2.88;2.30;;;;;;;11.98;77.32;99138.06;6327678;28;20091;-82
2023/04/13 07:21:16;;;;;;;3.10;2.00;;;;;;;12.35;77.85;99135.03;6327919;28;20044;-82
2023/04/13 07:24:17;;;;;;;4.75;2.80;;;;;;;12.57;74.37;99133.25;6327660;28;20092;-82
2023/04/13 07:27:18;;;;;;;4.00;2.57;;;;;;;12.78;73.74;99141.91;6320246;28;20066;-84
2023/04/13 07:30:19;;;;;;;3.70;2.65;;;;;;;12.68;72.88;99141.03;6327201;28;20492;-82
2023/04/13 07:33:19;;;;;;;4.40;2.25;;;;;;;12.63;73.52;99143.22;6326737;28;20071;-82
2023/04/13 07:36:22;;;;;;;3.72;2.67;;;;;;;12.72;74.13;99142.44;6322985;28;20147;-83
2023/04/13 07:39:22;;;;;;;;;;;;;;;12.64;74.02;99144.84;6316586;28;20130;-80
2023/04/13 07:42:23;;;;;;;3.13;2.08;;;;;;;12.66;74.11;99141.19;6326372;28;19923;-82
2023/04/13 07:45:24;;;;;;;4.72;2.85;;;;;;;12.68;73.49;99141.03;6324964;28;20065;-81
2023/04/13 07:48:25;;;;;;;3.83;2.72;;;;;;;12.55;74.28;99120.31;6319769;28;20051;-83
2023/04/13 07:51:26;;;;;;;4.28;3.25;;;;;;;12.77;74.63;99134.22;6332045;28;20044;-83
2023/04/13 07:54:27;;;;;;;3.33;2.53;;;;;;;12.63;76.17;99123.09;6325528;28;20445;-82
2023/04/13 07:57:28;;;;;;;5.32;2.83;;;;;;;12.72;74.01;99136.38;6307845;28;20059;-84
2023/04/13 08:00:29;;;;;;;5.45;3.25;;;;;;;12.70;76.34;99144.34;6324409;28;20492;-83
2023/04/13 08:03:30;;;;;;;6.65;3.20;;;;;;;12.81;75.43;99151.31;6306904;28;20048;-83
2023/04/13 08:06:33;;;;;;;5.07;2.70;;;;;;;12.84;77.10;99153.66;6318009;28;20052;-83
2023/04/13 08:09:37;;;;;;;4.15;2.70;;;;;;;13.09;75.49;99153.25;6306454;28;20055;-83
2023/04/13 08:12:38;;;;;;;3.78;2.60;;;;;;;13.25;73.69;99150.09;6324210;28;20055;-83
2023/04/13 08:15:39;;;;;;;3.28;2.30;;;;;;;13.41;72.90;99144.41;6324501;28;20084;-83
2023/04/13 08:18:41;;;;;;;3.95;2.35;;;;;;;13.15;70.81;99153.66;6314647;28;20423;-84
2023/04/13 08:21:42;;;;;;;2.63;2.10;;;;;;;12.97;74.10;99161.28;6331580;28;20048;-82
2023/04/13 08:24:43;;;;;;;3.55;2.03;;;;;;;12.88;71.57;99157.66;6331492;28;20287;-81
2023/04/13 08:27:43;;;;;;;3.00;2.00;;;;;;;12.94;71.16;99165.00;6331216;28;20059;-82
2023/04/13 08:30:44;;;;;;;4.50;2.42;;;;;;;13.27;70.57;99160.47;6329872;28;20048;-83
2023/04/13 08:33:45;;;;;;;4.80;2.25;;;;;;;13.37;69.83;99163.97;6326841;28;20050;-82
2023/04/13 08:36:46;;;;;;;4.03;2.75;;;;;;;13.49;71.41;99164.72;6319008;28;20044;-82
2023/04/13 08:39:47;;;;;;;4.22;3.00;;;;;;;13.52;70.63;99161.81;6328250;28;20180;-84
2023/04/13 08:42:48;;;;;;;5.20;2.53;;;;;;;13.64;70.23;99167.78;6329203;28;20111;-83
2023/04/13 08:45:51;;;;;;;2.85;1.90;;;;;;;13.66;69.64;99163.22;6330426;28;20056;-85
2023/04/13 08:48:55;;;;;;;6.57;2.35;;;;;;;13.41;67.88;99165.38;6347273;28;20476;-85
2023/04/13 08:52:08;;;;;;;5.72;3.03;;;;;;;13.77;69.19;99157.03;6323395;28;20126;-84
2023/04/13 08:55:09;;;;;;;5.13;3.17;;;;;;;13.96;65.07;99153.59;6305695;28;20416;-84
2023/04/13 08:58:43;;;;;;;4.07;3.10;;;;;;;14.42;69.08;99152.91;6324431;28;20134;-85
2023/04/13 09:01:55;;;;;;;3.10;2.15;;;;;;;14.69;64.51;99139.06;6306227;28;20044;-83
2023/04/13 09:05:04;;;;;;;4.68;2.60;;;;;;;14.78;64.30;99141.78;6323566;28;20404;-84
2023/04/13 09:08:06;;;;;;;3.70;2.30;;;;;;;14.90;62.33;99143.28;6304333;28;20080;-84
2023/04/13 09:11:09;;;;;;;3.80;2.15;;;;;;;15.11;61.74;99135.19;6305437;28;20101;-85
2023/04/13 09:14:10;;;;;;;5.30;2.25;;;;;;;14.94;61.31;99121.00;6323741;28;20044;-84
2023/04/13 09:17:24;;;;;;;3.13;2.10;;;;;;;15.13;62.29;99133.22;6313936;28;20141;-83
2023/04/13 09:20:25;;;;;;;3.10;2.00;;;;;;;15.18;61.35;99127.56;6305165;28;20044;-82
2023/04/13 09:23:26;;;;;;;4.10;2.42;;;;;;;15.06;60.87;99121.66;6328456;28;20058;-83
2023/04/13 09:26:37;;;;;;;4.90;1.90;;;;;;;15.07;60.64;99126.78;6329904;28;20051;-83
2023/04/13 09:29:47;;;;;;;3.70;2.47;;;;;;;14.98;59.40;99143.38;6322855;28;20040;-84
2023/04/13 09:33:03;;;;;;;2.58;1.80;;;;;;;15.10;59.03;99141.41;6337946;28;20048;-84
2023/04/13 09:36:15;;;;;;;4.47;2.25;;;;;;;14.90;57.12;99138.84;6313175;28;20058;-84
2023/04/13 09:39:23;;;;;;;3.60;1.70;;;;;;;14.88;56.81;99137.34;6323308;28;20435;-82
2023/04/13 09:42:24;;;;;;;1.98;1.35;;;;;;;14.88;54.91;99138.16;6329886;28;20074;-84
2023/04/13 09:45:44;;;;;;;7.57;1.52;;;;;;;15.01;54.46;99134.38;6322731;28;20491;-84
2023/04/13 09:48:45;;;;;;;1.52;1.20;;;;;;;14.88;54.25;99135.53;6314196;28;20052;-81
2023/04/13 09:51:49;;;;;;;2.33;1.80;;;;;;;14.96;54.77;99137.44;6314873;28;20473;-82
2023/04/13 09:54:54;;;;;;;3.58;1.75;;;;;;;15.10;55.17;99130.91;6313917;28;20127;-84
2023/04/13 09:57:55;;;;;;;3.10;1.90;;;;;;;15.19;53.64;99116.06;6302291;28;20147;-84
2023/04/13 10:00:57;;;;;;;1.77;1.55;;;;;;;15.48;54.97;99114.13;6307519;28;20155;-82
2023/04/13 10:03:58;;;;;;;11.93;1.60;;;;;;;15.61;53.83;99121.63;6298632;28;20041;-83
2023/04/13 10:06:59;;;;;;;4.23;1.63;;;;;;;15.77;54.11;99113.09;6308492;28;20561;-84
2023/04/13 10:10:00;;;;;;;2.60;1.33;;;;;;;15.79;52.97;99113.78;6310042;28;20051;-83
2023/04/13 10:13:09;;;;;;;3.78;1.70;;;;;;;15.95;52.07;99115.75;6310985;28;20047;-85
2023/04/13 10:16:16;;;;;;;5.30;1.90;;;;;;;16.09;51.81;99117.03;6306142;28;20397;-84
2023/04/13 10:19:22;;;;;;;2.40;1.58;;;;;;;15.82;50.81;99113.50;6300695;28;20552;-84
2023/04/13 10:22:23;;;;;;;2.90;1.80;;;;;;;15.85;52.08;99102.66;6310467;28;20302;-83
2023/04/13 10:25:25;;;;;;;1.85;1.23;;;;;;;15.97;51.62;99124.31;6295336;28;20048;-84
2023/04/13 10:28:26;;;;;;;2.50;1.70;;;;;;;16.29;52.28;99121.13;6295265;28;20492;-84
2023/04/13 10:31:42;;;;;;;2.08;1.85;;;;;;;16.71;50.50;99115.16;6320241;28;20044;-84
2023/04/13 10:34:43;;;;;;;2.83;1.70;;;;;;;16.69;50.22;99111.03;6319737;28;20454;-83
2023/04/13 10:37:45;;;;;;;3.53;1.88;;;;;;;16.64;47.71;99105.41;6321159;28;20051;-84
2023/04/13 10:40:47;;;;;;;8.93;1.80;;;;;;;16.80;49.39;99083.56;6319776;28;20415;-84
2023/04/13 10:43:58;;;;;;;3.47;1.92;;;;;;;17.00;49.22;99113.19;6313881;28;20048;-84
2023/04/13 10:47:04;;;;;;;2.20;1.55;;;;;;;17.24;47.99;99110.66;6320166;28;20052;-84
2023/04/13 10:50:15;;;;;;;3.95;1.17;;;;;;;17.28;47.72;99098.00;6306897;28;20049;-83
2023/04/13 10:53:24;;;;;;;1.67;1.33;;;;;;;17.14;47.92;99096.78;6317536;28;20062;-82
2023/04/13 10:56:24;;;;;;;1.77;1.50;;;;;;;17.38;47.80;99088.13;6309847;28;20062;-84
2023/04/13 10:59:43;;;;;;;2.03;1.40;;;;;;;17.78;44.49;99102.38;6320067;28;20052;-85
2023/04/13 11:02:44;;;;;;;1.70;1.40;;;;;;;17.91;43.85;99101.91;6285194;28;20044;-84
2023/04/13 11:05:56;;;;;;;2.72;1.50;;;;;;;18.00;43.74;99095.66;6285888;28;20454;-85
2023/04/13 11:09:03;;;;;;;2.40;1.77;;;;;;;18.32;45.95;99094.00;6319474;28;20525;-84
2023/04/13 11:12:07;;;;;;;1.42;1.30;;;;;;;18.34;44.40;99092.00;6319238;28;20497;-85
2023/04/13 11:15:08;;;;;;;5.35;1.90;;;;;;;18.56;42.81;99087.03;6319663;28;20474;-85
2023/04/13 11:18:09;;;;;;;1.80;1.40;;;;;;;18.30;39.01;99067.78;6322386;28;20052;-85
2023/04/13 11:21:14;;;;;;;1.42;1.13;;;;;;;18.64;41.53;99087.84;6287528;28;20048;-83
2023/04/13 11:24:25;;;;;;;1.67;1.00;;;;;;;18.84;39.03;99084.81;6294496;28;20049;-83
2023/04/13 11:27:27;;;;;;;4.32;1.50;;;;;;;18.68;39.03;99090.97;6298132;28;20048;-84
2023/04/13 11:30:29;;;;;;;2.58;1.48;;;;;;;18.30;37.75;99090.69;6298545;28;20071;-85
2023/04/13 11:33:33;;;;;;;15.95;7.03;;;;;;;18.35;40.00;99069.91;6313765;28;20135;-84
2023/04/13 11:36:33;;;;;;;3.25;1.80;;;;;;;18.80;40.91;99079.09;6323614;28;20482;-84
2023/04/13 11:39:37;;;;;;;2.70;1.60;;;;;;;19.24;39.30;99086.50;6324447;28;20059;-84
2023/04/13 11:42:41;;;;;;;14.07;5.07;;;;;;;19.16;41.46;99077.78;6323769;28;20072;-84
2023/04/13 11:45:46;;;;;;;10.90;3.00;;;;;;;19.16;39.40;99054.78;6324063;28;20048;-84
2023/04/13 11:48:46;;;;;;;3.45;1.60;;;;;;;19.16;39.45;99061.91;6324312;28;20058;-86
2023/04/13 11:51:47;;;;;;;2.45;1.33;;;;;;;19.53;37.72;99059.38;6311067;28;20040;-86
2023/04/13 11:54:52;;;;;;;1.40;1.30;;;;;;;19.64;39.86;99054.66;6298152;28;20056;-86
2023/04/13 11:57:53;;;;;;;2.22;1.65;;;;;;;19.22;39.10;99058.56;6313618;28;20059;-86
2023/04/13 12:00:54;;;;;;;12.05;4.00;;;;;;;19.33;40.31;99063.47;6319421;28;20043;-91
2023/04/13 12:04:04;;;;;;;3.90;2.25;;;;;;;19.29;40.94;99047.13;6334238;28;20101;-93
2023/04/13 12:07:16;;;;;;;5.30;1.75;;;;;;;19.29;40.46;99057.72;6334867;28;20105;-90
2023/04/13 12:10:24;;;;;;;8.55;3.10;;;;;;;19.43;38.70;99050.03;6335766;28;20055;-91
2023/04/13 12:13:27;;;;;;;2.55;1.65;;;;;;;19.56;41.85;99049.44;6333345;28;20051;-85
2023/04/13 12:16:32;;;;;;;26.20;7.32;;;;;;;19.80;39.01;99038.69;6333841;28;20047;-84
2023/04/13 12:19:40;;;;;;;12.10;3.47;;;;;;;20.08;40.03;99031.03;6323455;28;20043;-84
2023/04/13 12:22:41;;;;;;;2.78;1.45;;;;;;;19.91;37.64;99018.91;6331754;28;20590;-83
2023/04/13 12:25:55;;;;;;;1.60;1.30;;;;;;;20.14;39.29;99016.25;6349997;28;20052;-84
2023/04/13 12:28:56;;;;;;;6.97;3.13;;;;;;;19.81;38.93;99023.63;6330232;28;20058;-84
2023/04/13 12:32:02;;;;;;;3.65;2.00;;;;;;;19.90;38.58;99014.63;6331573;28;20048;-87
2023/04/13 12:35:06;;;;;;;2.05;1.45;;;;;;;19.65;37.57;99024.56;6349340;28;20052;-87
2023/04/13 12:38:08;;;;;;;1.77;1.33;;;;;;;19.82;40.83;99020.81;6347867;28;20418;-86
2023/04/13 12:41:09;;;;;;;2.73;1.40;;;;;;;19.69;37.16;99010.00;6332789;28;20123;-85
2023/04/13 12:44:10;;;;;;;7.55;2.88;;;;;;;19.67;38.72;99001.41;6307451;28;20393;-85
2023/04/13 12:47:13;;;;;;;3.33;2.10;;;;;;;18.96;37.08;98996.22;6339709;28;20079;-84
2023/04/13 12:50:14;;;;;;;2.20;1.48;;;;;;;19.21;39.62;99006.66;6346969;28;20063;-84
2023/04/13 12:53:15;;;;;;;2.37;1.70;;;;;;;19.61;39.03;98997.63;6307895;28;20506;-85
2023/04/13 12:56:18;;;;;;;3.95;2.00;;;;;;;19.27;39.77;98993.59;6305418;28;20043;-85
2023/04/13 12:59:21;;;;;;;4.07;1.75;;;;;;;19.49;38.69;98989.28;6305317;28;20060;-84
2023/04/13 13:02:24;;;;;;;2.42;1.30;;;;;;;19.34;38.28;98991.06;6305347;28;20044;-84
2023/04/13 13:05:24;;;;;;;2.60;1.98;;;;;;;19.34;39.86;98993.72;6305351;28;20056;-85
2023/04/13 13:08:25;;;;;;;5.67;4.33;;;;;;;19.51;39.60;98986.47;6305673;28;20052;-85
2023/04/13 13:11:27;;;;;;;2.23;1.80;;;;;;;19.12;37.73;98980.28;6339151;28;20051;-85
2023/04/13 13:14:28;;;;;;;3.70;1.67;;;;;;;18.99;39.64;98987.97;6324255;28;20300;-85
2023/04/13 13:17:28;;;;;;;1.75;1.60;;;;;;;18.76;40.04;98979.97;6323530;28;20510;-84
2023/04/13 13:20:30;;;;;;;2.60;1.60;;;;;;;19.10;39.99;98978.81;6329984;28;20055;-84
2023/04/13 13:23:30;;;;;;;1.80;1.30;;;;;;;19.47;39.63;98978.06;6329748;28;20408;-84
2023/04/13 13:26:32;;;;;;;2.83;1.60;;;;;;;19.09;40.16;98978.00;6329907;28;20051;-84
2023/04/13 13:29:35;;;;;;;2.88;1.33;;;;;;;19.07;40.01;98984.47;6329661;28;20414;-83
2023/04/13 13:32:36;;;;;;;3.35;1.42;;;;;;;19.12;37.40;98982.94;6326680;28;20055;-84
2023/04/13 13:35:40;;;;;;;2.58;1.42;;;;;;;18.57;38.85;98983.81;6318431;28;20131;-83
2023/04/13 13:38:42;;;;;;;1.83;1.23;;;;;;;19.26;39.13;98975.25;6304259;28;20044;-85
2023/04/13 13:41:42;;;;;;;2.72;1.45;;;;;;;19.43;38.77;98973.31;6315313;28;20047;-83
2023/04/13 13:44:45;;;;;;;1.92;1.63;;;;;;;19.62;38.87;98969.34;6329546;28;20051;-84
2023/04/13 13:47:53;;;;;;;2.30;1.33;;;;;;;19.71;39.46;98966.50;6329633;28;20100;-84
2023/04/13 13:50:56;;;;;;;2.15;1.75;;;;;;;19.41;38.24;98968.19;6323177;28;20040;-84
2023/04/13 13:53:58;;;;;;;2.00;1.40;;;;;;;19.50;39.23;98959.22;6321257;28;20079;-85
2023/04/13 13:57:00;;;;;;;1.80;1.52;;;;;;;19.54;37.47;98957.03;6314113;28;20564;-87
2023/04/13 14:00:04;;;;;;;2.22;1.52;;;;;;;18.57;39.74;98954.78;6329620;28;20076;-85
2023/04/13 14:03:05;;;;;;;6.10;2.55;;;;;;;18.96;39.81;98958.41;6344213;28;20074;-85
2023/04/13 14:06:07;;;;;;;2.47;1.75;;;;;;;18.74;39.70;98931.75;6327755;28;20422;-84
2023/04/13 14:09:08;;;;;;;5.28;2.13;;;;;;;18.22;39.91;98937.56;6347761;28;20048;-85
2023/04/13 14:12:14;;;;;;;3.17;1.73;;;;;;;18.33;38.97;98932.75;6326103;28;20039;-86
2023/04/13 14:15:17;;;;;;;3.05;1.58;;;;;;;18.34;38.89;98928.28;6326434;28;20055;-85
2023/04/13 14:18:22;;;;;;;1.50;1.17;;;;;;;19.10;38.75;98931.22;6323565;28;20469;-85
2023/04/13 14:21:23;;;;;;;2.35;1.30;;;;;;;19.03;38.60;98930.31;6327154;28;20071;-85
2023/04/13 14:24:24;;;;;;;1.93;1.43;;;;;;;18.87;39.41;98913.53;6314454;28;20058;-85